sensor_id;sensor_type;location;lat;lon;timestamp;P1;durP1;ratioP1;P2;durP2;ratioP2
46399;SDS011;32104;50.838;4.388;2022-12-18T00:40:17;21.90;;;8.25;;
46399;SDS011;32104;50.838;4.388;2022-12-18T00:42:43;26.23;;;9.10;;
46399;SDS011;32104;50.838;4.388;2022-12-18T00:45:21;26.88;;;7.70;;
46399;SDS011;32104;50.838;4.388;2022-12-18T00:47:48;22.60;;;7.70;;
46399;SDS011;32104;50.838;4.388;2022-12-18T00:50:14;23.50;;;8.13;;
46399;SDS011;32104;50.838;4.388;2022-12-18T00:52:40;21.58;;;7.22;;
46399;SDS011;32104;50.838;4.388;2022-12-18T00:55:06;17.15;;;6.35;;
46399;SDS011;32104;50.838;4.388;2022-12-18T00:57:32;14.80;;;5.97;;
46399;SDS011;32104;50.838;4.388;2022-12-18T00:59:58;18.40;;;6.78;;
46399;SDS011;32104;50.838;4.388;2022-12-18T01:02:23;18.90;;;6.85;;
46399;SDS011;32104;50.838;4.388;2022-12-18T01:04:49;23.85;;;6.93;;
46399;SDS011;32104;50.838;4.388;2022-12-18T01:07:15;21.55;;;7.57;;
46399;SDS011;32104;50.838;4.388;2022-12-18T01:09:40;19.38;;;5.70;;
46399;SDS011;32104;50.838;4.388;2022-12-18T01:12:06;19.38;;;6.82;;
46399;SDS011;32104;50.838;4.388;2022-12-18T01:14:32;17.75;;;6.95;;
46399;SDS011;32104;50.838;4.388;2022-12-18T01:16:58;17.70;;;7.13;;
46399;SDS011;32104;50.838;4.388;2022-12-18T01:19:23;23.85;;;6.70;;
46399;SDS011;32104;50.838;4.388;2022-12-18T01:21:49;22.33;;;6.47;;
46399;SDS011;32104;50.838;4.388;2022-12-18T01:26:43;18.17;;;6.38;;
46399;SDS011;32104;50.838;4.388;2022-12-18T01:29:09;14.35;;;6.03;;
46399;SDS011;32104;50.838;4.388;2022-12-18T01:31:35;17.27;;;5.65;;
46399;SDS011;32104;50.838;4.388;2022-12-18T01:34:00;17.58;;;5.63;;
46399;SDS011;32104;50.838;4.388;2022-12-18T01:36:27;21.98;;;6.00;;
46399;SDS011;32104;50.838;4.388;2022-12-18T01:38:55;20.17;;;6.47;;
46399;SDS011;32104;50.838;4.388;2022-12-18T01:41:22;20.95;;;5.53;;
46399;SDS011;32104;50.838;4.388;2022-12-18T01:43:52;16.48;;;5.88;;
46399;SDS011;32104;50.838;4.388;2022-12-18T01:46:24;21.27;;;5.25;;
46399;SDS011;32104;50.838;4.388;2022-12-18T01:48:52;13.18;;;5.70;;
46399;SDS011;32104;50.838;4.388;2022-12-18T01:51:22;15.55;;;3.90;;
46399;SDS011;32104;50.838;4.388;2022-12-18T01:53:48;18.35;;;6.32;;
46399;SDS011;32104;50.838;4.388;2022-12-18T01:56:16;13.60;;;5.53;;
46399;SDS011;32104;50.838;4.388;2022-12-18T01:59:03;16.73;;;5.82;;
46399;SDS011;32104;50.838;4.388;2022-12-18T02:01:30;12.27;;;3.92;;
46399;SDS011;32104;50.838;4.388;2022-12-18T02:04:14;19.80;;;5.65;;
46399;SDS011;32104;50.838;4.388;2022-12-18T02:06:55;15.40;;;4.45;;
46399;SDS011;32104;50.838;4.388;2022-12-18T02:09:36;14.27;;;4.45;;
46399;SDS011;32104;50.838;4.388;2022-12-18T02:17:26;14.77;;;4.75;;
46399;SDS011;32104;50.838;4.388;2022-12-18T02:27:55;13.85;;;4.55;;
46399;SDS011;32104;50.838;4.388;2022-12-18T02:30:24;13.90;;;4.20;;
46399;SDS011;32104;50.838;4.388;2022-12-18T02:32:52;16.67;;;4.80;;
46399;SDS011;32104;50.838;4.388;2022-12-18T02:35:20;17.33;;;5.20;;
46399;SDS011;32104;50.838;4.388;2022-12-18T02:37:49;9.68;;;4.75;;
46399;SDS011;32104;50.838;4.388;2022-12-18T02:40:16;13.88;;;4.28;;
46399;SDS011;32104;50.838;4.388;2022-12-18T02:42:44;14.25;;;4.57;;
46399;SDS011;32104;50.838;4.388;2022-12-18T02:45:09;13.38;;;5.35;;
46399;SDS011;32104;50.838;4.388;2022-12-18T02:47:36;14.15;;;4.65;;
46399;SDS011;32104;50.838;4.388;2022-12-18T02:50:16;14.68;;;5.15;;
46399;SDS011;32104;50.838;4.388;2022-12-18T02:58:22;13.60;;;4.57;;
46399;SDS011;32104;50.838;4.388;2022-12-18T03:03:46;10.70;;;3.92;;
46399;SDS011;32104;50.838;4.388;2022-12-18T03:06:24;10.60;;;4.20;;
46399;SDS011;32104;50.838;4.388;2022-12-18T03:08:59;17.08;;;5.05;;
46399;SDS011;32104;50.838;4.388;2022-12-18T03:11:30;13.43;;;4.72;;
46399;SDS011;32104;50.838;4.388;2022-12-18T03:14:17;15.25;;;4.55;;
46399;SDS011;32104;50.838;4.388;2022-12-18T03:19:15;11.95;;;4.07;;
46399;SDS011;32104;50.838;4.388;2022-12-18T03:21:45;16.58;;;4.95;;
46399;SDS011;32104;50.838;4.388;2022-12-18T03:24:14;14.07;;;5.00;;
46399;SDS011;32104;50.838;4.388;2022-12-18T03:26:43;22.67;;;4.97;;
46399;SDS011;32104;50.838;4.388;2022-12-18T03:29:18;12.68;;;4.82;;
46399;SDS011;32104;50.838;4.388;2022-12-18T03:31:56;19.45;;;5.57;;
46399;SDS011;32104;50.838;4.388;2022-12-18T03:34:30;17.38;;;4.05;;
46399;SDS011;32104;50.838;4.388;2022-12-18T03:36:59;11.10;;;4.55;;
46399;SDS011;32104;50.838;4.388;2022-12-18T03:39:26;12.00;;;4.13;;
46399;SDS011;32104;50.838;4.388;2022-12-18T03:42:37;11.27;;;4.13;;
46399;SDS011;32104;50.838;4.388;2022-12-18T03:44:53;14.77;;;4.03;;
46399;SDS011;32104;50.838;4.388;2022-12-18T03:47:29;14.98;;;4.53;;
46399;SDS011;32104;50.838;4.388;2022-12-18T03:50:14;10.52;;;3.47;;
46399;SDS011;32104;50.838;4.388;2022-12-18T03:52:54;16.10;;;3.70;;
46399;SDS011;32104;50.838;4.388;2022-12-18T03:55:46;10.13;;;3.63;;
46399;SDS011;32104;50.838;4.388;2022-12-18T03:58:15;7.68;;;2.88;;
46399;SDS011;32104;50.838;4.388;2022-12-18T04:00:44;11.27;;;3.03;;
46399;SDS011;32104;50.838;4.388;2022-12-18T04:03:12;6.57;;;2.83;;
46399;SDS011;32104;50.838;4.388;2022-12-18T04:05:39;9.43;;;3.30;;
46399;SDS011;32104;50.838;4.388;2022-12-18T04:08:07;11.23;;;3.80;;
46399;SDS011;32104;50.838;4.388;2022-12-18T04:10:33;9.50;;;3.45;;
46399;SDS011;32104;50.838;4.388;2022-12-18T04:12:58;11.65;;;3.97;;
46399;SDS011;32104;50.838;4.388;2022-12-18T04:15:24;11.95;;;3.75;;
46399;SDS011;32104;50.838;4.388;2022-12-18T04:17:50;12.23;;;4.05;;
46399;SDS011;32104;50.838;4.388;2022-12-18T04:20:16;13.77;;;4.13;;
46399;SDS011;32104;50.838;4.388;2022-12-18T04:22:42;18.33;;;4.45;;
46399;SDS011;32104;50.838;4.388;2022-12-18T04:25:08;15.25;;;4.43;;
46399;SDS011;32104;50.838;4.388;2022-12-18T04:27:36;15.32;;;3.25;;
46399;SDS011;32104;50.838;4.388;2022-12-18T04:30:02;12.73;;;3.78;;
46399;SDS011;32104;50.838;4.388;2022-12-18T04:32:28;6.97;;;3.03;;
46399;SDS011;32104;50.838;4.388;2022-12-18T04:34:54;11.50;;;3.50;;
46399;SDS011;32104;50.838;4.388;2022-12-18T04:37:20;13.70;;;3.60;;
46399;SDS011;32104;50.838;4.388;2022-12-18T04:39:45;10.57;;;4.00;;
46399;SDS011;32104;50.838;4.388;2022-12-18T04:42:11;9.73;;;3.92;;
46399;SDS011;32104;50.838;4.388;2022-12-18T04:44:37;12.20;;;3.15;;
46399;SDS011;32104;50.838;4.388;2022-12-18T04:47:03;16.10;;;4.47;;
46399;SDS011;32104;50.838;4.388;2022-12-18T04:49:28;9.27;;;2.80;;
46399;SDS011;32104;50.838;4.388;2022-12-18T04:51:54;9.35;;;3.38;;
46399;SDS011;32104;50.838;4.388;2022-12-18T04:54:20;12.13;;;3.72;;
46399;SDS011;32104;50.838;4.388;2022-12-18T04:56:46;13.02;;;3.65;;
46399;SDS011;32104;50.838;4.388;2022-12-18T04:59:11;15.45;;;3.88;;
46399;SDS011;32104;50.838;4.388;2022-12-18T05:01:37;10.45;;;3.45;;
46399;SDS011;32104;50.838;4.388;2022-12-18T05:04:03;9.48;;;3.47;;
46399;SDS011;32104;50.838;4.388;2022-12-18T05:06:29;12.85;;;3.40;;
46399;SDS011;32104;50.838;4.388;2022-12-18T05:08:54;11.75;;;3.15;;
46399;SDS011;32104;50.838;4.388;2022-12-18T05:11:20;11.05;;;3.65;;
46399;SDS011;32104;50.838;4.388;2022-12-18T05:13:46;11.10;;;3.95;;
46399;SDS011;32104;50.838;4.388;2022-12-18T05:16:12;16.85;;;4.70;;
46399;SDS011;32104;50.838;4.388;2022-12-18T05:18:39;16.38;;;3.75;;
46399;SDS011;32104;50.838;4.388;2022-12-18T05:21:05;9.98;;;3.28;;
46399;SDS011;32104;50.838;4.388;2022-12-18T05:23:31;13.35;;;4.53;;
46399;SDS011;32104;50.838;4.388;2022-12-18T05:25:58;16.20;;;4.22;;
46399;SDS011;32104;50.838;4.388;2022-12-18T05:28:29;15.80;;;4.15;;
46399;SDS011;32104;50.838;4.388;2022-12-18T05:30:57;9.93;;;3.05;;
46399;SDS011;32104;50.838;4.388;2022-12-18T05:33:25;17.65;;;3.47;;
46399;SDS011;32104;50.838;4.388;2022-12-18T05:35:54;10.52;;;2.90;;
46399;SDS011;32104;50.838;4.388;2022-12-18T05:38:21;12.15;;;3.58;;
46399;SDS011;32104;50.838;4.388;2022-12-18T05:40:48;11.15;;;3.05;;
46399;SDS011;32104;50.838;4.388;2022-12-18T05:43:16;9.25;;;3.03;;
46399;SDS011;32104;50.838;4.388;2022-12-18T05:45:42;14.50;;;3.50;;
46399;SDS011;32104;50.838;4.388;2022-12-18T05:48:08;8.65;;;3.10;;
46399;SDS011;32104;50.838;4.388;2022-12-18T05:50:38;7.53;;;2.50;;
46399;SDS011;32104;50.838;4.388;2022-12-18T05:53:05;6.18;;;2.83;;
46399;SDS011;32104;50.838;4.388;2022-12-18T05:55:35;8.43;;;3.50;;
46399;SDS011;32104;50.838;4.388;2022-12-18T05:58:02;7.22;;;2.78;;
46399;SDS011;32104;50.838;4.388;2022-12-18T06:00:29;9.65;;;2.63;;
46399;SDS011;32104;50.838;4.388;2022-12-18T06:02:55;7.20;;;2.30;;
46399;SDS011;32104;50.838;4.388;2022-12-18T06:05:21;7.13;;;2.80;;
46399;SDS011;32104;50.838;4.388;2022-12-18T06:07:46;6.78;;;2.22;;
46399;SDS011;32104;50.838;4.388;2022-12-18T06:10:12;6.10;;;2.20;;
46399;SDS011;32104;50.838;4.388;2022-12-18T06:12:38;10.80;;;2.67;;
46399;SDS011;32104;50.838;4.388;2022-12-18T06:15:04;10.57;;;3.00;;
46399;SDS011;32104;50.838;4.388;2022-12-18T06:17:31;7.85;;;3.30;;
46399;SDS011;32104;50.838;4.388;2022-12-18T06:19:57;12.25;;;2.70;;
46399;SDS011;32104;50.838;4.388;2022-12-18T06:22:23;7.22;;;2.70;;
46399;SDS011;32104;50.838;4.388;2022-12-18T06:24:49;9.20;;;2.70;;
46399;SDS011;32104;50.838;4.388;2022-12-18T06:27:15;10.65;;;2.97;;
46399;SDS011;32104;50.838;4.388;2022-12-18T06:29:41;8.40;;;2.50;;
46399;SDS011;32104;50.838;4.388;2022-12-18T06:32:08;8.50;;;2.13;;
46399;SDS011;32104;50.838;4.388;2022-12-18T06:34:34;12.05;;;3.75;;
46399;SDS011;32104;50.838;4.388;2022-12-18T06:37:02;9.77;;;2.08;;
46399;SDS011;32104;50.838;4.388;2022-12-18T06:39:28;5.45;;;2.47;;
46399;SDS011;32104;50.838;4.388;2022-12-18T06:41:54;4.25;;;1.75;;
46399;SDS011;32104;50.838;4.388;2022-12-18T06:44:20;5.50;;;1.70;;
46399;SDS011;32104;50.838;4.388;2022-12-18T06:46:46;4.47;;;2.25;;
46399;SDS011;32104;50.838;4.388;2022-12-18T06:49:12;6.35;;;1.77;;
46399;SDS011;32104;50.838;4.388;2022-12-18T06:51:38;5.78;;;2.22;;
46399;SDS011;32104;50.838;4.388;2022-12-18T06:54:03;7.90;;;2.17;;
46399;SDS011;32104;50.838;4.388;2022-12-18T06:56:29;7.47;;;2.45;;
46399;SDS011;32104;50.838;4.388;2022-12-18T06:58:55;6.22;;;2.03;;
46399;SDS011;32104;50.838;4.388;2022-12-18T07:01:21;6.10;;;2.28;;
46399;SDS011;32104;50.838;4.388;2022-12-18T07:03:51;8.80;;;2.42;;
46399;SDS011;32104;50.838;4.388;2022-12-18T07:06:21;13.57;;;2.45;;
46399;SDS011;32104;50.838;4.388;2022-12-18T07:08:48;5.93;;;2.28;;
46399;SDS011;32104;50.838;4.388;2022-12-18T07:11:15;7.00;;;1.73;;
46399;SDS011;32104;50.838;4.388;2022-12-18T07:13:42;6.47;;;2.40;;
46399;SDS011;32104;50.838;4.388;2022-12-18T07:16:09;7.45;;;2.35;;
46399;SDS011;32104;50.838;4.388;2022-12-18T07:18:36;10.82;;;2.65;;
46399;SDS011;32104;50.838;4.388;2022-12-18T07:21:06;6.82;;;2.38;;
46399;SDS011;32104;50.838;4.388;2022-12-18T07:23:33;7.10;;;2.08;;
46399;SDS011;32104;50.838;4.388;2022-12-18T07:26:11;7.80;;;2.65;;
46399;SDS011;32104;50.838;4.388;2022-12-18T07:28:38;7.40;;;2.17;;
46399;SDS011;32104;50.838;4.388;2022-12-18T07:31:05;9.40;;;2.90;;
46399;SDS011;32104;50.838;4.388;2022-12-18T07:33:33;8.27;;;2.42;;
46399;SDS011;32104;50.838;4.388;2022-12-18T07:35:59;8.45;;;2.13;;
46399;SDS011;32104;50.838;4.388;2022-12-18T07:38:26;9.88;;;2.63;;
46399;SDS011;32104;50.838;4.388;2022-12-18T07:40:52;5.45;;;2.10;;
46399;SDS011;32104;50.838;4.388;2022-12-18T07:43:18;10.75;;;2.35;;
46399;SDS011;32104;50.838;4.388;2022-12-18T07:45:43;5.68;;;2.50;;
46399;SDS011;32104;50.838;4.388;2022-12-18T07:48:09;5.07;;;2.15;;
46399;SDS011;32104;50.838;4.388;2022-12-18T07:50:35;7.75;;;2.72;;
46399;SDS011;32104;50.838;4.388;2022-12-18T07:53:01;8.02;;;2.45;;
46399;SDS011;32104;50.838;4.388;2022-12-18T07:55:31;7.95;;;2.40;;
46399;SDS011;32104;50.838;4.388;2022-12-18T07:58:00;4.72;;;2.38;;
46399;SDS011;32104;50.838;4.388;2022-12-18T08:00:27;5.97;;;2.50;;
46399;SDS011;32104;50.838;4.388;2022-12-18T08:02:53;8.30;;;2.28;;
46399;SDS011;32104;50.838;4.388;2022-12-18T08:05:18;7.70;;;2.00;;
46399;SDS011;32104;50.838;4.388;2022-12-18T08:07:48;5.57;;;2.28;;
46399;SDS011;32104;50.838;4.388;2022-12-18T08:10:14;7.45;;;2.15;;
46399;SDS011;32104;50.838;4.388;2022-12-18T08:12:39;10.98;;;2.40;;
46399;SDS011;32104;50.838;4.388;2022-12-18T08:15:06;6.32;;;1.95;;
46399;SDS011;32104;50.838;4.388;2022-12-18T08:17:32;7.47;;;2.58;;
46399;SDS011;32104;50.838;4.388;2022-12-18T08:19:58;7.43;;;2.75;;
46399;SDS011;32104;50.838;4.388;2022-12-18T08:22:23;9.57;;;2.42;;
46399;SDS011;32104;50.838;4.388;2022-12-18T08:24:49;6.70;;;2.35;;
46399;SDS011;32104;50.838;4.388;2022-12-18T08:27:15;6.68;;;2.40;;
46399;SDS011;32104;50.838;4.388;2022-12-18T08:29:41;5.35;;;2.15;;
46399;SDS011;32104;50.838;4.388;2022-12-18T08:32:07;6.72;;;2.38;;
46399;SDS011;32104;50.838;4.388;2022-12-18T08:34:32;5.57;;;2.05;;
46399;SDS011;32104;50.838;4.388;2022-12-18T08:36:58;7.60;;;2.65;;
46399;SDS011;32104;50.838;4.388;2022-12-18T08:39:24;7.50;;;2.47;;
46399;SDS011;32104;50.838;4.388;2022-12-18T08:41:50;7.05;;;2.78;;
46399;SDS011;32104;50.838;4.388;2022-12-18T08:44:34;12.15;;;3.25;;
46399;SDS011;32104;50.838;4.388;2022-12-18T08:47:02;9.80;;;2.65;;
46399;SDS011;32104;50.838;4.388;2022-12-18T08:49:28;9.68;;;2.63;;
46399;SDS011;32104;50.838;4.388;2022-12-18T08:51:54;8.63;;;2.83;;
46399;SDS011;32104;50.838;4.388;2022-12-18T08:54:22;6.68;;;2.30;;
46399;SDS011;32104;50.838;4.388;2022-12-18T08:56:48;7.30;;;2.30;;
46399;SDS011;32104;50.838;4.388;2022-12-18T08:59:14;9.77;;;3.25;;
46399;SDS011;32104;50.838;4.388;2022-12-18T09:01:41;10.77;;;3.00;;
46399;SDS011;32104;50.838;4.388;2022-12-18T09:04:07;7.93;;;2.92;;
46399;SDS011;32104;50.838;4.388;2022-12-18T09:06:36;8.40;;;2.97;;
46399;SDS011;32104;50.838;4.388;2022-12-18T09:09:03;7.22;;;2.80;;
46399;SDS011;32104;50.838;4.388;2022-12-18T09:11:29;9.60;;;2.90;;
46399;SDS011;32104;50.838;4.388;2022-12-18T09:13:56;7.15;;;2.72;;
46399;SDS011;32104;50.838;4.388;2022-12-18T09:16:22;5.30;;;2.85;;
46399;SDS011;32104;50.838;4.388;2022-12-18T09:18:49;8.07;;;3.30;;
46399;SDS011;32104;50.838;4.388;2022-12-18T09:21:16;10.00;;;3.42;;
46399;SDS011;32104;50.838;4.388;2022-12-18T09:23:52;9.85;;;3.38;;
46399;SDS011;32104;50.838;4.388;2022-12-18T09:26:19;8.30;;;2.95;;
46399;SDS011;32104;50.838;4.388;2022-12-18T09:28:49;10.75;;;3.17;;
46399;SDS011;32104;50.838;4.388;2022-12-18T09:31:15;8.82;;;3.60;;
46399;SDS011;32104;50.838;4.388;2022-12-18T09:33:43;9.73;;;3.45;;
46399;SDS011;32104;50.838;4.388;2022-12-18T09:36:11;12.02;;;3.90;;
46399;SDS011;32104;50.838;4.388;2022-12-18T09:38:38;11.18;;;3.80;;
46399;SDS011;32104;50.838;4.388;2022-12-18T09:41:30;9.52;;;3.40;;
46399;SDS011;32104;50.838;4.388;2022-12-18T09:46:50;10.55;;;3.70;;
46399;SDS011;32104;50.838;4.388;2022-12-18T09:49:18;12.32;;;3.72;;
46399;SDS011;32104;50.838;4.388;2022-12-18T09:51:53;11.95;;;3.47;;
46399;SDS011;32104;50.838;4.388;2022-12-18T09:54:26;8.50;;;3.63;;
46399;SDS011;32104;50.838;4.388;2022-12-18T09:56:58;8.07;;;3.38;;
46399;SDS011;32104;50.838;4.388;2022-12-18T09:59:25;13.07;;;4.40;;
46399;SDS011;32104;50.838;4.388;2022-12-18T10:01:56;12.98;;;4.50;;
46399;SDS011;32104;50.838;4.388;2022-12-18T10:04:22;13.55;;;4.32;;
46399;SDS011;32104;50.838;4.388;2022-12-18T10:06:59;9.88;;;4.25;;
46399;SDS011;32104;50.838;4.388;2022-12-18T10:09:44;12.68;;;4.32;;
46399;SDS011;32104;50.838;4.388;2022-12-18T10:17:41;11.73;;;3.80;;
46399;SDS011;32104;50.838;4.388;2022-12-18T10:20:38;14.63;;;5.32;;
46399;SDS011;32104;50.838;4.388;2022-12-18T10:26:18;16.40;;;4.25;;
46399;SDS011;32104;50.838;4.388;2022-12-18T10:28:44;11.05;;;4.88;;
46399;SDS011;32104;50.838;4.388;2022-12-18T10:31:14;18.35;;;5.07;;
46399;SDS011;32104;50.838;4.388;2022-12-18T10:33:43;18.42;;;4.90;;
46399;SDS011;32104;50.838;4.388;2022-12-18T10:36:09;13.23;;;4.97;;
46399;SDS011;32104;50.838;4.388;2022-12-18T10:38:35;11.00;;;4.43;;
46399;SDS011;32104;50.838;4.388;2022-12-18T10:41:04;12.60;;;5.22;;
46399;SDS011;32104;50.838;4.388;2022-12-18T10:43:38;11.35;;;4.60;;
46399;SDS011;32104;50.838;4.388;2022-12-18T10:48:34;16.52;;;5.43;;
46399;SDS011;32104;50.838;4.388;2022-12-18T10:51:04;15.50;;;5.70;;
46399;SDS011;32104;50.838;4.388;2022-12-18T10:53:32;15.70;;;5.13;;
46399;SDS011;32104;50.838;4.388;2022-12-18T10:56:00;14.97;;;5.77;;
46399;SDS011;32104;50.838;4.388;2022-12-18T10:58:30;15.63;;;6.03;;
46399;SDS011;32104;50.838;4.388;2022-12-18T11:03:58;22.77;;;8.10;;
46399;SDS011;32104;50.838;4.388;2022-12-18T11:06:26;13.50;;;5.88;;
46399;SDS011;32104;50.838;4.388;2022-12-18T11:08:59;19.20;;;6.88;;
46399;SDS011;32104;50.838;4.388;2022-12-18T11:11:29;18.75;;;5.25;;
46399;SDS011;32104;50.838;4.388;2022-12-18T11:16:34;19.67;;;7.15;;
46399;SDS011;32104;50.838;4.388;2022-12-18T11:19:12;19.20;;;6.53;;
46399;SDS011;32104;50.838;4.388;2022-12-18T11:21:57;19.08;;;6.07;;
46399;SDS011;32104;50.838;4.388;2022-12-18T11:24:32;14.00;;;5.40;;
46399;SDS011;32104;50.838;4.388;2022-12-18T11:27:00;18.88;;;6.10;;
46399;SDS011;32104;50.838;4.388;2022-12-18T11:29:35;14.40;;;5.57;;
46399;SDS011;32104;50.838;4.388;2022-12-18T11:35:17;14.18;;;4.93;;
46399;SDS011;32104;50.838;4.388;2022-12-18T11:38:04;15.65;;;5.97;;
46399;SDS011;32104;50.838;4.388;2022-12-18T11:40:36;12.40;;;5.05;;
46399;SDS011;32104;50.838;4.388;2022-12-18T11:43:10;13.52;;;5.15;;
46399;SDS011;32104;50.838;4.388;2022-12-18T11:48:27;16.52;;;5.97;;
46399;SDS011;32104;50.838;4.388;2022-12-18T11:50:58;16.60;;;6.32;;
46399;SDS011;32104;50.838;4.388;2022-12-18T11:53:27;16.85;;;6.13;;
46399;SDS011;32104;50.838;4.388;2022-12-18T11:58:55;14.88;;;5.20;;
46399;SDS011;32104;50.838;4.388;2022-12-18T12:12:49;16.95;;;5.90;;
46399;SDS011;32104;50.838;4.388;2022-12-18T12:21:39;14.90;;;5.07;;
46399;SDS011;32104;50.838;4.388;2022-12-18T12:26:30;16.90;;;5.43;;
46399;SDS011;32104;50.838;4.388;2022-12-18T12:35:20;19.17;;;6.10;;
46399;SDS011;32104;50.838;4.388;2022-12-18T12:40:20;16.75;;;5.80;;
46399;SDS011;32104;50.838;4.388;2022-12-18T12:42:52;21.33;;;6.65;;
46399;SDS011;32104;50.838;4.388;2022-12-18T12:48:05;15.32;;;5.28;;
46399;SDS011;32104;50.838;4.388;2022-12-18T12:50:38;17.85;;;6.68;;
46399;SDS011;32104;50.838;4.388;2022-12-18T12:53:07;15.48;;;6.15;;
46399;SDS011;32104;50.838;4.388;2022-12-18T12:55:39;20.02;;;7.00;;
46399;SDS011;32104;50.838;4.388;2022-12-18T12:58:31;20.52;;;7.07;;
46399;SDS011;32104;50.838;4.388;2022-12-18T13:01:14;18.15;;;6.20;;
46399;SDS011;32104;50.838;4.388;2022-12-18T13:03:56;21.20;;;7.20;;
46399;SDS011;32104;50.838;4.388;2022-12-18T13:09:30;19.65;;;6.22;;
46399;SDS011;32104;50.838;4.388;2022-12-18T13:12:01;20.40;;;7.35;;
46399;SDS011;32104;50.838;4.388;2022-12-18T13:14:47;18.30;;;6.55;;
46399;SDS011;32104;50.838;4.388;2022-12-18T13:25:45;23.38;;;7.72;;
46399;SDS011;32104;50.838;4.388;2022-12-18T13:43:47;21.35;;;8.18;;
46399;SDS011;32104;50.838;4.388;2022-12-18T13:51:52;20.95;;;8.48;;
46399;SDS011;32104;50.838;4.388;2022-12-18T13:54:28;25.52;;;8.50;;
46399;SDS011;32104;50.838;4.388;2022-12-18T13:57:00;25.08;;;7.30;;
46399;SDS011;32104;50.838;4.388;2022-12-18T13:59:34;26.52;;;8.23;;
46399;SDS011;32104;50.838;4.388;2022-12-18T14:02:07;26.08;;;9.00;;
46399;SDS011;32104;50.838;4.388;2022-12-18T14:04:39;23.83;;;7.55;;
46399;SDS011;32104;50.838;4.388;2022-12-18T14:09:51;24.38;;;8.35;;
46399;SDS011;32104;50.838;4.388;2022-12-18T14:12:29;33.88;;;9.68;;
46399;SDS011;32104;50.838;4.388;2022-12-18T14:18:01;23.23;;;8.75;;
46399;SDS011;32104;50.838;4.388;2022-12-18T14:20:47;30.42;;;8.93;;
46399;SDS011;32104;50.838;4.388;2022-12-18T14:23:32;32.85;;;10.13;;
46399;SDS011;32104;50.838;4.388;2022-12-18T14:26:01;22.73;;;8.00;;
46399;SDS011;32104;50.838;4.388;2022-12-18T14:28:28;25.30;;;8.70;;
46399;SDS011;32104;50.838;4.388;2022-12-18T14:30:54;27.25;;;9.25;;
46399;SDS011;32104;50.838;4.388;2022-12-18T14:33:22;23.10;;;9.25;;
46399;SDS011;32104;50.838;4.388;2022-12-18T14:35:58;28.23;;;9.93;;
46399;SDS011;32104;50.838;4.388;2022-12-18T14:38:39;25.00;;;9.35;;
46399;SDS011;32104;50.838;4.388;2022-12-18T14:43:39;29.13;;;9.73;;
46399;SDS011;32104;50.838;4.388;2022-12-18T14:46:25;30.50;;;10.95;;
46399;SDS011;32104;50.838;4.388;2022-12-18T14:49:04;31.60;;;9.75;;
46399;SDS011;32104;50.838;4.388;2022-12-18T14:51:48;26.52;;;9.00;;
46399;SDS011;32104;50.838;4.388;2022-12-18T14:54:17;26.40;;;9.43;;
46399;SDS011;32104;50.838;4.388;2022-12-18T14:56:45;26.13;;;9.52;;
46399;SDS011;32104;50.838;4.388;2022-12-18T14:59:20;29.90;;;9.80;;
46399;SDS011;32104;50.838;4.388;2022-12-18T15:04:24;26.88;;;10.48;;
46399;SDS011;32104;50.838;4.388;2022-12-18T15:07:01;26.52;;;8.98;;
46399;SDS011;32104;50.838;4.388;2022-12-18T15:09:29;32.47;;;10.18;;
46399;SDS011;32104;50.838;4.388;2022-12-18T15:11:55;30.60;;;9.32;;
46399;SDS011;32104;50.838;4.388;2022-12-18T15:14:28;21.45;;;8.98;;
46399;SDS011;32104;50.838;4.388;2022-12-18T15:17:12;27.13;;;9.45;;
46399;SDS011;32104;50.838;4.388;2022-12-18T15:19:44;31.20;;;10.35;;
46399;SDS011;32104;50.838;4.388;2022-12-18T15:24:45;31.73;;;9.95;;
46399;SDS011;32104;50.838;4.388;2022-12-18T15:27:21;35.53;;;11.00;;
46399;SDS011;32104;50.838;4.388;2022-12-18T15:30:02;29.92;;;10.20;;
46399;SDS011;32104;50.838;4.388;2022-12-18T15:32:34;25.40;;;9.48;;
46399;SDS011;32104;50.838;4.388;2022-12-18T15:37:41;23.08;;;8.73;;
46399;SDS011;32104;50.838;4.388;2022-12-18T15:40:08;26.83;;;9.10;;
46399;SDS011;32104;50.838;4.388;2022-12-18T15:42:41;24.08;;;8.50;;
46399;SDS011;32104;50.838;4.388;2022-12-18T15:45:26;30.33;;;10.18;;
46399;SDS011;32104;50.838;4.388;2022-12-18T15:47:52;30.45;;;9.18;;
46399;SDS011;32104;50.838;4.388;2022-12-18T15:50:18;26.00;;;8.85;;
46399;SDS011;32104;50.838;4.388;2022-12-18T15:52:45;29.08;;;8.65;;
46399;SDS011;32104;50.838;4.388;2022-12-18T15:55:16;25.83;;;9.25;;
46399;SDS011;32104;50.838;4.388;2022-12-18T15:58:03;29.73;;;9.43;;
46399;SDS011;32104;50.838;4.388;2022-12-18T16:00:32;27.83;;;9.23;;
46399;SDS011;32104;50.838;4.388;2022-12-18T16:03:00;27.23;;;9.98;;
46399;SDS011;32104;50.838;4.388;2022-12-18T16:05:26;25.40;;;8.52;;
46399;SDS011;32104;50.838;4.388;2022-12-18T16:08:01;31.27;;;9.80;;
46399;SDS011;32104;50.838;4.388;2022-12-18T16:10:28;26.20;;;9.18;;
46399;SDS011;32104;50.838;4.388;2022-12-18T16:12:54;29.10;;;9.02;;
46399;SDS011;32104;50.838;4.388;2022-12-18T16:15:20;27.25;;;8.48;;
46399;SDS011;32104;50.838;4.388;2022-12-18T16:17:46;30.92;;;9.02;;
46399;SDS011;32104;50.838;4.388;2022-12-18T16:20:14;25.00;;;8.70;;
46399;SDS011;32104;50.838;4.388;2022-12-18T16:22:44;27.27;;;7.72;;
46399;SDS011;32104;50.838;4.388;2022-12-18T16:25:17;25.67;;;8.23;;
46399;SDS011;32104;50.838;4.388;2022-12-18T16:27:56;22.48;;;7.45;;
46399;SDS011;32104;50.838;4.388;2022-12-18T16:30:31;21.30;;;8.48;;
46399;SDS011;32104;50.838;4.388;2022-12-18T16:35:46;21.50;;;7.78;;
46399;SDS011;32104;50.838;4.388;2022-12-18T16:38:27;20.95;;;7.40;;
46399;SDS011;32104;50.838;4.388;2022-12-18T16:41:15;24.40;;;8.38;;
46399;SDS011;32104;50.838;4.388;2022-12-18T16:47:00;26.48;;;8.38;;
46399;SDS011;32104;50.838;4.388;2022-12-18T16:49:31;24.73;;;7.88;;
46399;SDS011;32104;50.838;4.388;2022-12-18T16:51:57;27.80;;;7.97;;
46399;SDS011;32104;50.838;4.388;2022-12-18T16:54:28;28.80;;;7.90;;
46399;SDS011;32104;50.838;4.388;2022-12-18T16:56:59;27.70;;;7.60;;
46399;SDS011;32104;50.838;4.388;2022-12-18T16:59:29;23.88;;;7.80;;
46399;SDS011;32104;50.838;4.388;2022-12-18T17:02:00;24.85;;;6.70;;
46399;SDS011;32104;50.838;4.388;2022-12-18T17:04:32;24.55;;;7.43;;
46399;SDS011;32104;50.838;4.388;2022-12-18T17:07:01;20.38;;;7.25;;
46399;SDS011;32104;50.838;4.388;2022-12-18T17:09:31;21.80;;;8.07;;
46399;SDS011;32104;50.838;4.388;2022-12-18T17:11:57;23.55;;;7.15;;
46399;SDS011;32104;50.838;4.388;2022-12-18T17:14:25;31.55;;;8.85;;
46399;SDS011;32104;50.838;4.388;2022-12-18T17:16:52;25.98;;;7.80;;
46399;SDS011;32104;50.838;4.388;2022-12-18T17:19:24;25.30;;;7.80;;
46399;SDS011;32104;50.838;4.388;2022-12-18T17:21:55;22.55;;;7.30;;
46399;SDS011;32104;50.838;4.388;2022-12-18T17:24:21;23.45;;;7.88;;
46399;SDS011;32104;50.838;4.388;2022-12-18T17:26:52;21.48;;;7.18;;
46399;SDS011;32104;50.838;4.388;2022-12-18T17:29:22;24.70;;;8.30;;
46399;SDS011;32104;50.838;4.388;2022-12-18T17:31:48;28.42;;;8.90;;
46399;SDS011;32104;50.838;4.388;2022-12-18T17:34:14;28.75;;;8.55;;
46399;SDS011;32104;50.838;4.388;2022-12-18T17:36:51;19.73;;;7.32;;
46399;SDS011;32104;50.838;4.388;2022-12-18T17:39:17;18.60;;;6.82;;
46399;SDS011;32104;50.838;4.388;2022-12-18T17:41:54;30.02;;;8.55;;
46399;SDS011;32104;50.838;4.388;2022-12-18T17:44:21;25.15;;;7.88;;
46399;SDS011;32104;50.838;4.388;2022-12-18T17:46:56;23.92;;;8.18;;
46399;SDS011;32104;50.838;4.388;2022-12-18T17:49:26;23.73;;;8.13;;
46399;SDS011;32104;50.838;4.388;2022-12-18T17:51:56;24.92;;;8.48;;
46399;SDS011;32104;50.838;4.388;2022-12-18T17:54:26;28.05;;;8.82;;